sensor_id;sensor_type;location;lat;lon;timestamp;P1;durP1;ratioP1;P2;durP2;ratioP2
16845;SDS011;8539;53.188;8.696;2022-07-12T00:00:15;3.75;;;2.30;;
16845;SDS011;8539;53.188;8.696;2022-07-12T00:02:41;1.83;;;1.73;;
16845;SDS011;8539;53.188;8.696;2022-07-12T00:05:08;5.47;;;2.28;;
16845;SDS011;8539;53.188;8.696;2022-07-12T00:07:34;2.75;;;2.10;;
16845;SDS011;8539;53.188;8.696;2022-07-12T00:10:00;2.95;;;1.88;;
16845;SDS011;8539;53.188;8.696;2022-07-12T00:12:26;4.70;;;1.95;;
16845;SDS011;8539;53.188;8.696;2022-07-12T00:14:53;1.60;;;1.50;;
16845;SDS011;8539;53.188;8.696;2022-07-12T00:17:20;3.70;;;2.03;;
16845;SDS011;8539;53.188;8.696;2022-07-12T00:19:46;2.95;;;1.98;;
16845;SDS011;8539;53.188;8.696;2022-07-12T00:22:12;2.53;;;1.98;;
16845;SDS011;8539;53.188;8.696;2022-07-12T00:24:38;1.95;;;1.85;;
16845;SDS011;8539;53.188;8.696;2022-07-12T00:27:06;2.42;;;2.22;;
16845;SDS011;8539;53.188;8.696;2022-07-12T00:29:32;2.95;;;2.60;;
16845;SDS011;8539;53.188;8.696;2022-07-12T00:31:58;1.83;;;1.70;;
16845;SDS011;8539;53.188;8.696;2022-07-12T00:34:24;4.00;;;2.33;;
16845;SDS011;8539;53.188;8.696;2022-07-12T00:36:51;2.65;;;2.45;;
16845;SDS011;8539;53.188;8.696;2022-07-12T00:39:17;4.00;;;2.80;;
16845;SDS011;8539;53.188;8.696;2022-07-12T00:41:43;3.67;;;2.35;;
16845;SDS011;8539;53.188;8.696;2022-07-12T00:44:14;4.63;;;2.60;;
16845;SDS011;8539;53.188;8.696;2022-07-12T00:46:40;3.17;;;2.88;;
16845;SDS011;8539;53.188;8.696;2022-07-12T00:49:06;4.35;;;3.13;;
16845;SDS011;8539;53.188;8.696;2022-07-12T00:51:33;3.50;;;2.75;;
16845;SDS011;8539;53.188;8.696;2022-07-12T00:53:59;2.63;;;2.40;;
16845;SDS011;8539;53.188;8.696;2022-07-12T00:56:25;4.32;;;3.22;;
16845;SDS011;8539;53.188;8.696;2022-07-12T00:58:52;6.05;;;3.03;;
16845;SDS011;8539;53.188;8.696;2022-07-12T01:01:18;2.55;;;2.35;;
16845;SDS011;8539;53.188;8.696;2022-07-12T01:03:45;2.95;;;2.65;;
16845;SDS011;8539;53.188;8.696;2022-07-12T01:06:17;2.63;;;2.42;;
16845;SDS011;8539;53.188;8.696;2022-07-12T01:08:46;3.60;;;3.30;;
16845;SDS011;8539;53.188;8.696;2022-07-12T01:11:14;4.30;;;2.95;;
16845;SDS011;8539;53.188;8.696;2022-07-12T01:13:41;2.88;;;2.63;;
16845;SDS011;8539;53.188;8.696;2022-07-12T01:16:12;3.70;;;3.13;;
16845;SDS011;8539;53.188;8.696;2022-07-12T01:18:40;3.33;;;2.92;;
16845;SDS011;8539;53.188;8.696;2022-07-12T01:21:07;3.85;;;3.10;;
16845;SDS011;8539;53.188;8.696;2022-07-12T01:23:35;3.60;;;2.75;;
16845;SDS011;8539;53.188;8.696;2022-07-12T01:26:03;3.40;;;2.33;;
16845;SDS011;8539;53.188;8.696;2022-07-12T01:28:29;3.08;;;2.70;;
16845;SDS011;8539;53.188;8.696;2022-07-12T01:30:55;5.03;;;3.00;;
16845;SDS011;8539;53.188;8.696;2022-07-12T01:33:22;3.40;;;2.97;;
16845;SDS011;8539;53.188;8.696;2022-07-12T01:35:50;4.80;;;3.28;;
16845;SDS011;8539;53.188;8.696;2022-07-12T01:38:16;2.97;;;2.70;;
16845;SDS011;8539;53.188;8.696;2022-07-12T01:40:43;5.75;;;3.65;;
16845;SDS011;8539;53.188;8.696;2022-07-12T01:43:10;3.28;;;2.97;;
16845;SDS011;8539;53.188;8.696;2022-07-12T01:45:36;4.47;;;3.13;;
16845;SDS011;8539;53.188;8.696;2022-07-12T01:48:03;7.68;;;2.45;;
16845;SDS011;8539;53.188;8.696;2022-07-12T01:50:30;4.18;;;2.55;;
16845;SDS011;8539;53.188;8.696;2022-07-12T01:52:56;4.05;;;2.50;;
16845;SDS011;8539;53.188;8.696;2022-07-12T01:55:23;3.33;;;2.30;;
16845;SDS011;8539;53.188;8.696;2022-07-12T01:57:49;4.18;;;2.00;;
16845;SDS011;8539;53.188;8.696;2022-07-12T02:00:22;2.95;;;2.65;;
16845;SDS011;8539;53.188;8.696;2022-07-12T02:02:54;2.65;;;2.22;;
16845;SDS011;8539;53.188;8.696;2022-07-12T02:05:21;2.60;;;2.20;;
16845;SDS011;8539;53.188;8.696;2022-07-12T02:07:47;2.92;;;2.53;;
16845;SDS011;8539;53.188;8.696;2022-07-12T02:10:14;2.65;;;2.03;;
16845;SDS011;8539;53.188;8.696;2022-07-12T02:12:40;2.58;;;2.38;;
16845;SDS011;8539;53.188;8.696;2022-07-12T02:15:07;2.33;;;2.13;;
16845;SDS011;8539;53.188;8.696;2022-07-12T02:17:34;2.88;;;2.30;;
16845;SDS011;8539;53.188;8.696;2022-07-12T02:20:00;2.20;;;2.00;;
16845;SDS011;8539;53.188;8.696;2022-07-12T02:22:27;2.40;;;2.20;;
16845;SDS011;8539;53.188;8.696;2022-07-12T02:24:53;6.25;;;2.72;;
16845;SDS011;8539;53.188;8.696;2022-07-12T02:27:20;3.90;;;1.77;;
16845;SDS011;8539;53.188;8.696;2022-07-12T02:29:46;3.08;;;2.80;;
16845;SDS011;8539;53.188;8.696;2022-07-12T02:32:16;2.70;;;2.50;;
16845;SDS011;8539;53.188;8.696;2022-07-12T02:34:42;3.30;;;3.00;;
16845;SDS011;8539;53.188;8.696;2022-07-12T02:37:08;2.75;;;2.55;;
16845;SDS011;8539;53.188;8.696;2022-07-12T02:39:35;2.50;;;2.30;;
16845;SDS011;8539;53.188;8.696;2022-07-12T02:42:01;3.42;;;2.20;;
16845;SDS011;8539;53.188;8.696;2022-07-12T02:44:27;2.20;;;2.05;;
16845;SDS011;8539;53.188;8.696;2022-07-12T02:46:54;2.65;;;2.35;;
16845;SDS011;8539;53.188;8.696;2022-07-12T02:49:20;2.83;;;2.60;;
16845;SDS011;8539;53.188;8.696;2022-07-12T02:51:47;3.58;;;3.28;;
16845;SDS011;8539;53.188;8.696;2022-07-12T02:54:13;3.42;;;2.40;;
16845;SDS011;8539;53.188;8.696;2022-07-12T02:56:39;2.42;;;2.10;;
16845;SDS011;8539;53.188;8.696;2022-07-12T02:59:09;2.88;;;2.35;;
16845;SDS011;8539;53.188;8.696;2022-07-12T03:01:36;2.60;;;2.40;;
16845;SDS011;8539;53.188;8.696;2022-07-12T03:04:02;2.50;;;2.20;;
16845;SDS011;8539;53.188;8.696;2022-07-12T03:06:28;3.63;;;2.20;;
16845;SDS011;8539;53.188;8.696;2022-07-12T03:08:54;2.67;;;2.42;;
16845;SDS011;8539;53.188;8.696;2022-07-12T03:11:20;3.60;;;2.20;;
16845;SDS011;8539;53.188;8.696;2022-07-12T03:13:47;4.63;;;2.65;;
16845;SDS011;8539;53.188;8.696;2022-07-12T03:16:13;2.97;;;2.45;;
16845;SDS011;8539;53.188;8.696;2022-07-12T03:18:40;3.13;;;2.47;;
16845;SDS011;8539;53.188;8.696;2022-07-12T03:21:06;2.33;;;2.13;;
16845;SDS011;8539;53.188;8.696;2022-07-12T03:23:33;2.92;;;2.38;;
16845;SDS011;8539;53.188;8.696;2022-07-12T03:25:59;2.22;;;2.03;;
16845;SDS011;8539;53.188;8.696;2022-07-12T03:28:25;2.22;;;2.03;;
16845;SDS011;8539;53.188;8.696;2022-07-12T03:30:51;2.63;;;2.42;;
16845;SDS011;8539;53.188;8.696;2022-07-12T03:33:18;2.92;;;2.70;;
16845;SDS011;8539;53.188;8.696;2022-07-12T03:35:44;2.42;;;2.22;;
16845;SDS011;8539;53.188;8.696;2022-07-12T03:38:11;2.78;;;1.70;;
16845;SDS011;8539;53.188;8.696;2022-07-12T03:40:37;2.63;;;2.42;;
16845;SDS011;8539;53.188;8.696;2022-07-12T03:43:03;2.88;;;2.60;;
16845;SDS011;8539;53.188;8.696;2022-07-12T03:45:30;2.22;;;2.03;;
16845;SDS011;8539;53.188;8.696;2022-07-12T03:47:56;2.58;;;2.10;;
16845;SDS011;8539;53.188;8.696;2022-07-12T03:50:22;2.83;;;2.63;;
16845;SDS011;8539;53.188;8.696;2022-07-12T03:52:49;1.80;;;1.70;;
16845;SDS011;8539;53.188;8.696;2022-07-12T03:55:16;3.83;;;2.22;;
16845;SDS011;8539;53.188;8.696;2022-07-12T03:57:42;2.50;;;2.30;;
16845;SDS011;8539;53.188;8.696;2022-07-12T04:00:09;2.95;;;1.83;;
16845;SDS011;8539;53.188;8.696;2022-07-12T04:02:40;2.10;;;2.00;;
16845;SDS011;8539;53.188;8.696;2022-07-12T04:05:07;2.42;;;1.55;;
16845;SDS011;8539;53.188;8.696;2022-07-12T04:07:34;2.97;;;2.05;;
16845;SDS011;8539;53.188;8.696;2022-07-12T04:10:01;2.50;;;2.30;;
16845;SDS011;8539;53.188;8.696;2022-07-12T04:12:27;3.83;;;2.05;;
16845;SDS011;8539;53.188;8.696;2022-07-12T04:14:55;1.75;;;1.60;;
16845;SDS011;8539;53.188;8.696;2022-07-12T04:17:22;2.45;;;2.28;;
16845;SDS011;8539;53.188;8.696;2022-07-12T04:19:48;2.38;;;1.98;;
16845;SDS011;8539;53.188;8.696;2022-07-12T04:22:14;3.40;;;2.15;;
16845;SDS011;8539;53.188;8.696;2022-07-12T04:24:41;2.88;;;2.00;;
16845;SDS011;8539;53.188;8.696;2022-07-12T04:27:07;2.28;;;2.05;;
16845;SDS011;8539;53.188;8.696;2022-07-12T04:29:33;2.38;;;2.08;;
16845;SDS011;8539;53.188;8.696;2022-07-12T04:31:59;1.95;;;1.85;;
16845;SDS011;8539;53.188;8.696;2022-07-12T04:34:28;2.00;;;1.80;;
16845;SDS011;8539;53.188;8.696;2022-07-12T04:37:13;3.17;;;1.92;;
16845;SDS011;8539;53.188;8.696;2022-07-12T04:39:40;2.92;;;2.00;;
16845;SDS011;8539;53.188;8.696;2022-07-12T04:42:06;3.20;;;2.08;;
16845;SDS011;8539;53.188;8.696;2022-07-12T04:44:32;2.28;;;2.00;;
16845;SDS011;8539;53.188;8.696;2022-07-12T04:46:58;1.70;;;1.60;;
16845;SDS011;8539;53.188;8.696;2022-07-12T04:49:24;2.28;;;1.88;;
16845;SDS011;8539;53.188;8.696;2022-07-12T04:51:51;1.88;;;1.65;;
16845;SDS011;8539;53.188;8.696;2022-07-12T04:54:17;2.20;;;1.90;;
16845;SDS011;8539;53.188;8.696;2022-07-12T04:56:43;2.30;;;2.10;;
16845;SDS011;8539;53.188;8.696;2022-07-12T04:59:09;2.42;;;2.22;;
16845;SDS011;8539;53.188;8.696;2022-07-12T05:01:35;2.47;;;1.70;;
16845;SDS011;8539;53.188;8.696;2022-07-12T05:04:01;2.20;;;2.00;;
16845;SDS011;8539;53.188;8.696;2022-07-12T05:06:28;2.83;;;2.17;;
16845;SDS011;8539;53.188;8.696;2022-07-12T05:08:54;3.35;;;1.80;;
16845;SDS011;8539;53.188;8.696;2022-07-12T05:11:21;2.08;;;1.50;;
16845;SDS011;8539;53.188;8.696;2022-07-12T05:13:47;2.08;;;1.73;;
16845;SDS011;8539;53.188;8.696;2022-07-12T05:16:13;2.13;;;1.90;;
16845;SDS011;8539;53.188;8.696;2022-07-12T05:18:40;2.40;;;2.20;;
16845;SDS011;8539;53.188;8.696;2022-07-12T05:21:06;2.00;;;1.80;;
16845;SDS011;8539;53.188;8.696;2022-07-12T05:23:32;2.25;;;1.90;;
16845;SDS011;8539;53.188;8.696;2022-07-12T05:25:58;2.20;;;1.90;;
16845;SDS011;8539;53.188;8.696;2022-07-12T05:28:24;2.65;;;1.83;;
16845;SDS011;8539;53.188;8.696;2022-07-12T05:30:50;2.75;;;2.55;;
16845;SDS011;8539;53.188;8.696;2022-07-12T05:33:17;2.42;;;2.22;;
16845;SDS011;8539;53.188;8.696;2022-07-12T05:35:43;2.47;;;2.28;;
16845;SDS011;8539;53.188;8.696;2022-07-12T05:38:09;3.13;;;2.08;;
16845;SDS011;8539;53.188;8.696;2022-07-12T05:40:35;2.50;;;2.25;;
16845;SDS011;8539;53.188;8.696;2022-07-12T05:43:02;2.35;;;2.03;;
16845;SDS011;8539;53.188;8.696;2022-07-12T05:45:28;2.10;;;1.90;;
16845;SDS011;8539;53.188;8.696;2022-07-12T05:47:54;2.70;;;2.50;;
16845;SDS011;8539;53.188;8.696;2022-07-12T05:50:20;2.92;;;1.80;;
16845;SDS011;8539;53.188;8.696;2022-07-12T05:52:46;2.38;;;2.17;;
16845;SDS011;8539;53.188;8.696;2022-07-12T05:55:31;2.75;;;2.00;;
16845;SDS011;8539;53.188;8.696;2022-07-12T05:57:57;3.33;;;2.47;;
16845;SDS011;8539;53.188;8.696;2022-07-12T06:00:23;2.45;;;1.85;;
16845;SDS011;8539;53.188;8.696;2022-07-12T06:02:49;2.60;;;2.20;;
16845;SDS011;8539;53.188;8.696;2022-07-12T06:05:16;5.32;;;1.80;;
16845;SDS011;8539;53.188;8.696;2022-07-12T06:07:42;2.10;;;1.90;;
16845;SDS011;8539;53.188;8.696;2022-07-12T06:10:08;2.65;;;1.67;;
16845;SDS011;8539;53.188;8.696;2022-07-12T06:12:35;2.38;;;1.88;;
16845;SDS011;8539;53.188;8.696;2022-07-12T06:15:03;3.58;;;2.10;;
16845;SDS011;8539;53.188;8.696;2022-07-12T06:17:32;1.90;;;1.80;;
16845;SDS011;8539;53.188;8.696;2022-07-12T06:19:59;2.22;;;1.98;;
16845;SDS011;8539;53.188;8.696;2022-07-12T06:22:25;1.90;;;1.65;;
16845;SDS011;8539;53.188;8.696;2022-07-12T06:24:51;1.85;;;1.75;;
16845;SDS011;8539;53.188;8.696;2022-07-12T06:27:17;1.88;;;1.55;;
16845;SDS011;8539;53.188;8.696;2022-07-12T06:29:44;1.80;;;1.67;;
16845;SDS011;8539;53.188;8.696;2022-07-12T06:32:14;1.52;;;1.25;;
16845;SDS011;8539;53.188;8.696;2022-07-12T06:34:41;4.78;;;1.77;;
16845;SDS011;8539;53.188;8.696;2022-07-12T06:37:07;1.60;;;1.50;;
16845;SDS011;8539;53.188;8.696;2022-07-12T06:39:37;1.95;;;1.30;;
16845;SDS011;8539;53.188;8.696;2022-07-12T06:42:03;1.52;;;1.42;;
16845;SDS011;8539;53.188;8.696;2022-07-12T06:44:31;1.40;;;1.30;;
16845;SDS011;8539;53.188;8.696;2022-07-12T06:46:58;1.92;;;1.63;;
16845;SDS011;8539;53.188;8.696;2022-07-12T06:49:25;2.33;;;1.60;;
16845;SDS011;8539;53.188;8.696;2022-07-12T06:51:51;2.65;;;1.50;;
16845;SDS011;8539;53.188;8.696;2022-07-12T06:54:17;2.63;;;1.40;;
16845;SDS011;8539;53.188;8.696;2022-07-12T06:56:44;1.48;;;1.38;;
16845;SDS011;8539;53.188;8.696;2022-07-12T06:59:10;1.45;;;1.35;;
16845;SDS011;8539;53.188;8.696;2022-07-12T07:01:36;1.90;;;1.80;;
16845;SDS011;8539;53.188;8.696;2022-07-12T07:04:03;2.83;;;2.15;;
16845;SDS011;8539;53.188;8.696;2022-07-12T07:06:30;2.00;;;1.80;;
16845;SDS011;8539;53.188;8.696;2022-07-12T07:08:56;2.90;;;1.60;;
16845;SDS011;8539;53.188;8.696;2022-07-12T07:11:22;2.22;;;2.03;;
16845;SDS011;8539;53.188;8.696;2022-07-12T07:13:48;2.08;;;1.88;;
16845;SDS011;8539;53.188;8.696;2022-07-12T07:16:14;3.35;;;2.03;;
16845;SDS011;8539;53.188;8.696;2022-07-12T07:18:41;1.65;;;1.42;;
16845;SDS011;8539;53.188;8.696;2022-07-12T07:21:07;3.90;;;2.40;;
16845;SDS011;8539;53.188;8.696;2022-07-12T07:23:33;3.35;;;3.08;;
16845;SDS011;8539;53.188;8.696;2022-07-12T07:26:00;3.45;;;2.50;;
16845;SDS011;8539;53.188;8.696;2022-07-12T07:28:26;3.08;;;2.75;;
16845;SDS011;8539;53.188;8.696;2022-07-12T07:30:54;4.22;;;2.67;;
16845;SDS011;8539;53.188;8.696;2022-07-12T07:33:21;4.40;;;2.95;;
16845;SDS011;8539;53.188;8.696;2022-07-12T07:35:49;4.07;;;3.67;;
16845;SDS011;8539;53.188;8.696;2022-07-12T07:38:16;2.80;;;2.28;;
16845;SDS011;8539;53.188;8.696;2022-07-12T07:40:44;3.92;;;3.53;;
16845;SDS011;8539;53.188;8.696;2022-07-12T07:43:10;3.15;;;2.65;;
16845;SDS011;8539;53.188;8.696;2022-07-12T07:45:37;2.60;;;2.22;;
16845;SDS011;8539;53.188;8.696;2022-07-12T07:48:03;3.20;;;2.55;;
16845;SDS011;8539;53.188;8.696;2022-07-12T07:50:29;4.20;;;2.75;;
16845;SDS011;8539;53.188;8.696;2022-07-12T07:52:56;2.53;;;2.33;;
16845;SDS011;8539;53.188;8.696;2022-07-12T07:55:22;2.85;;;2.63;;
16845;SDS011;8539;53.188;8.696;2022-07-12T07:57:51;2.90;;;2.60;;
16845;SDS011;8539;53.188;8.696;2022-07-12T08:00:17;2.78;;;2.58;;
16845;SDS011;8539;53.188;8.696;2022-07-12T08:02:43;3.05;;;2.83;;
16845;SDS011;8539;53.188;8.696;2022-07-12T08:05:10;2.75;;;2.47;;
16845;SDS011;8539;53.188;8.696;2022-07-12T08:07:36;2.50;;;2.30;;
16845;SDS011;8539;53.188;8.696;2022-07-12T08:10:02;3.40;;;3.10;;
16845;SDS011;8539;53.188;8.696;2022-07-12T08:12:28;3.65;;;3.20;;
16845;SDS011;8539;53.188;8.696;2022-07-12T08:14:55;3.05;;;2.75;;
16845;SDS011;8539;53.188;8.696;2022-07-12T08:17:21;3.65;;;2.80;;
16845;SDS011;8539;53.188;8.696;2022-07-12T08:19:47;3.65;;;2.53;;
16845;SDS011;8539;53.188;8.696;2022-07-12T08:22:13;3.53;;;2.80;;
16845;SDS011;8539;53.188;8.696;2022-07-12T08:24:39;2.15;;;2.05;;
16845;SDS011;8539;53.188;8.696;2022-07-12T08:27:05;3.50;;;2.55;;
16845;SDS011;8539;53.188;8.696;2022-07-12T08:29:32;3.30;;;2.45;;
16845;SDS011;8539;53.188;8.696;2022-07-12T08:31:58;2.80;;;2.60;;
16845;SDS011;8539;53.188;8.696;2022-07-12T08:34:24;2.10;;;1.90;;
16845;SDS011;8539;53.188;8.696;2022-07-12T08:36:50;3.10;;;2.53;;
16845;SDS011;8539;53.188;8.696;2022-07-12T08:39:16;2.30;;;2.10;;
16845;SDS011;8539;53.188;8.696;2022-07-12T08:41:43;2.35;;;2.15;;
16845;SDS011;8539;53.188;8.696;2022-07-12T08:44:09;2.72;;;2.22;;
16845;SDS011;8539;53.188;8.696;2022-07-12T08:46:35;2.40;;;2.20;;
16845;SDS011;8539;53.188;8.696;2022-07-12T08:49:05;3.25;;;2.20;;
16845;SDS011;8539;53.188;8.696;2022-07-12T08:51:35;2.05;;;1.40;;
16845;SDS011;8539;53.188;8.696;2022-07-12T08:54:08;1.65;;;1.55;;
16845;SDS011;8539;53.188;8.696;2022-07-12T08:56:36;1.77;;;1.67;;
16845;SDS011;8539;53.188;8.696;2022-07-12T08:59:11;2.97;;;2.05;;
16845;SDS011;8539;53.188;8.696;2022-07-12T09:04:16;2.45;;;1.83;;
16845;SDS011;8539;53.188;8.696;2022-07-12T09:06:47;1.75;;;1.65;;
16845;SDS011;8539;53.188;8.696;2022-07-12T09:09:48;2.85;;;2.00;;
16845;SDS011;8539;53.188;8.696;2022-07-12T09:12:07;2.38;;;1.70;;
16845;SDS011;8539;53.188;8.696;2022-07-12T09:14:51;1.55;;;1.35;;
16845;SDS011;8539;53.188;8.696;2022-07-12T09:17:19;2.65;;;1.60;;
16845;SDS011;8539;53.188;8.696;2022-07-12T09:19:53;2.95;;;1.60;;
16845;SDS011;8539;53.188;8.696;2022-07-12T09:22:21;2.13;;;1.77;;
16845;SDS011;8539;53.188;8.696;2022-07-12T09:24:47;2.92;;;1.48;;
16845;SDS011;8539;53.188;8.696;2022-07-12T09:27:14;2.00;;;1.20;;
16845;SDS011;8539;53.188;8.696;2022-07-12T09:29:47;1.20;;;1.10;;
16845;SDS011;8539;53.188;8.696;2022-07-12T09:32:14;2.95;;;1.60;;
16845;SDS011;8539;53.188;8.696;2022-07-12T09:34:58;1.90;;;1.63;;
16845;SDS011;8539;53.188;8.696;2022-07-12T09:37:43;2.60;;;1.65;;
16845;SDS011;8539;53.188;8.696;2022-07-12T09:40:10;2.60;;;1.67;;
16845;SDS011;8539;53.188;8.696;2022-07-12T09:42:37;2.13;;;1.20;;
16845;SDS011;8539;53.188;8.696;2022-07-12T09:45:05;1.25;;;1.15;;
16845;SDS011;8539;53.188;8.696;2022-07-12T09:47:35;2.55;;;1.77;;
16845;SDS011;8539;53.188;8.696;2022-07-12T09:50:01;2.45;;;1.38;;
16845;SDS011;8539;53.188;8.696;2022-07-12T09:52:29;1.70;;;1.30;;
16845;SDS011;8539;53.188;8.696;2022-07-12T09:55:01;2.22;;;1.50;;
16845;SDS011;8539;53.188;8.696;2022-07-12T09:57:33;1.48;;;1.33;;
16845;SDS011;8539;53.188;8.696;2022-07-12T10:00:00;1.48;;;1.38;;
16845;SDS011;8539;53.188;8.696;2022-07-12T10:02:27;1.20;;;1.10;;
16845;SDS011;8539;53.188;8.696;2022-07-12T10:04:54;3.03;;;1.70;;
16845;SDS011;8539;53.188;8.696;2022-07-12T10:07:22;1.30;;;1.20;;
16845;SDS011;8539;53.188;8.696;2022-07-12T10:09:48;1.40;;;1.30;;
16845;SDS011;8539;53.188;8.696;2022-07-12T10:12:17;1.20;;;1.00;;
16845;SDS011;8539;53.188;8.696;2022-07-12T10:14:46;1.45;;;1.35;;
16845;SDS011;8539;53.188;8.696;2022-07-12T10:17:29;1.65;;;1.42;;
16845;SDS011;8539;53.188;8.696;2022-07-12T10:20:18;1.75;;;1.30;;
16845;SDS011;8539;53.188;8.696;2022-07-12T10:22:47;1.98;;;1.88;;
16845;SDS011;8539;53.188;8.696;2022-07-12T10:25:33;1.60;;;1.50;;
16845;SDS011;8539;53.188;8.696;2022-07-12T10:28:00;1.75;;;1.65;;
16845;SDS011;8539;53.188;8.696;2022-07-12T10:30:28;2.60;;;1.65;;
16845;SDS011;8539;53.188;8.696;2022-07-12T10:32:56;2.72;;;1.88;;
16845;SDS011;8539;53.188;8.696;2022-07-12T10:35:25;1.73;;;1.63;;
16845;SDS011;8539;53.188;8.696;2022-07-12T10:40:38;4.10;;;1.52;;
16845;SDS011;8539;53.188;8.696;2022-07-12T10:45:37;2.13;;;1.48;;
16845;SDS011;8539;53.188;8.696;2022-07-12T11:01:03;1.45;;;1.30;;
16845;SDS011;8539;53.188;8.696;2022-07-12T11:06:03;1.45;;;1.35;;
16845;SDS011;8539;53.188;8.696;2022-07-12T11:08:30;2.35;;;1.20;;
16845;SDS011;8539;53.188;8.696;2022-07-12T11:10:57;1.63;;;1.20;;
16845;SDS011;8539;53.188;8.696;2022-07-12T11:13:24;2.50;;;1.27;;
16845;SDS011;8539;53.188;8.696;2022-07-12T11:15:58;1.02;;;0.93;;
16845;SDS011;8539;53.188;8.696;2022-07-12T11:18:29;1.73;;;1.33;;
16845;SDS011;8539;53.188;8.696;2022-07-12T11:21:01;2.00;;;1.80;;
16845;SDS011;8539;53.188;8.696;2022-07-12T11:23:30;3.15;;;1.55;;
16845;SDS011;8539;53.188;8.696;2022-07-12T11:25:56;1.80;;;1.10;;
16845;SDS011;8539;53.188;8.696;2022-07-12T11:28:25;1.73;;;1.33;;
16845;SDS011;8539;53.188;8.696;2022-07-12T11:31:02;2.20;;;1.10;;
16845;SDS011;8539;53.188;8.696;2022-07-12T11:33:31;2.85;;;1.50;;
16845;SDS011;8539;53.188;8.696;2022-07-12T11:36:03;1.58;;;1.48;;
16845;SDS011;8539;53.188;8.696;2022-07-12T11:38:31;1.88;;;1.55;;
16845;SDS011;8539;53.188;8.696;2022-07-12T11:40:58;1.30;;;1.20;;
16845;SDS011;8539;53.188;8.696;2022-07-12T11:43:25;1.30;;;1.20;;
16845;SDS011;8539;53.188;8.696;2022-07-12T11:45:53;1.75;;;1.63;;
16845;SDS011;8539;53.188;8.696;2022-07-12T11:48:20;2.08;;;1.63;;
16845;SDS011;8539;53.188;8.696;2022-07-12T11:50:49;1.52;;;1.42;;
16845;SDS011;8539;53.188;8.696;2022-07-12T11:53:24;1.77;;;1.52;;
16845;SDS011;8539;53.188;8.696;2022-07-12T11:55:53;2.10;;;1.80;;
16845;SDS011;8539;53.188;8.696;2022-07-12T11:58:21;2.28;;;1.70;;
16845;SDS011;8539;53.188;8.696;2022-07-12T12:00:50;1.67;;;1.58;;
16845;SDS011;8539;53.188;8.696;2022-07-12T12:03:17;2.15;;;1.83;;
16845;SDS011;8539;53.188;8.696;2022-07-12T12:05:49;1.98;;;1.48;;
16845;SDS011;8539;53.188;8.696;2022-07-12T12:08:16;1.70;;;1.58;;
16845;SDS011;8539;53.188;8.696;2022-07-12T12:10:57;1.27;;;1.17;;
16845;SDS011;8539;53.188;8.696;2022-07-12T12:13:25;2.35;;;1.60;;
16845;SDS011;8539;53.188;8.696;2022-07-12T12:15:55;1.77;;;1.33;;
16845;SDS011;8539;53.188;8.696;2022-07-12T12:18:36;1.50;;;1.40;;
16845;SDS011;8539;53.188;8.696;2022-07-12T12:21:04;3.00;;;1.20;;
16845;SDS011;8539;53.188;8.696;2022-07-12T12:23:36;2.20;;;1.45;;
16845;SDS011;8539;53.188;8.696;2022-07-12T12:26:11;2.78;;;1.63;;
16845;SDS011;8539;53.188;8.696;2022-07-12T12:28:44;1.48;;;1.33;;
16845;SDS011;8539;53.188;8.696;2022-07-12T12:31:12;2.35;;;1.65;;
16845;SDS011;8539;53.188;8.696;2022-07-12T12:36:14;3.53;;;1.20;;
16845;SDS011;8539;53.188;8.696;2022-07-12T12:41:11;1.75;;;1.05;;
16845;SDS011;8539;53.188;8.696;2022-07-12T12:43:38;3.63;;;1.45;;
16845;SDS011;8539;53.188;8.696;2022-07-12T12:46:05;1.50;;;1.30;;
16845;SDS011;8539;53.188;8.696;2022-07-12T12:48:32;2.85;;;1.10;;
16845;SDS011;8539;53.188;8.696;2022-07-12T12:53:31;1.50;;;1.40;;
16845;SDS011;8539;53.188;8.696;2022-07-12T12:55:57;2.17;;;1.30;;
16845;SDS011;8539;53.188;8.696;2022-07-12T12:58:24;1.90;;;1.20;;
16845;SDS011;8539;53.188;8.696;2022-07-12T13:00:52;1.63;;;1.30;;
16845;SDS011;8539;53.188;8.696;2022-07-12T13:03:22;1.35;;;0.80;;
16845;SDS011;8539;53.188;8.696;2022-07-12T13:05:51;1.20;;;0.95;;
16845;SDS011;8539;53.188;8.696;2022-07-12T13:08:18;1.13;;;1.00;;
16845;SDS011;8539;53.188;8.696;2022-07-12T13:10:46;1.92;;;0.95;;
16845;SDS011;8539;53.188;8.696;2022-07-12T13:13:37;1.20;;;1.10;;
16845;SDS011;8539;53.188;8.696;2022-07-12T13:16:04;1.20;;;1.10;;
16845;SDS011;8539;53.188;8.696;2022-07-12T13:18:31;3.33;;;1.10;;
16845;SDS011;8539;53.188;8.696;2022-07-12T13:20:58;1.10;;;1.00;;
16845;SDS011;8539;53.188;8.696;2022-07-12T13:23:24;1.00;;;0.90;;
16845;SDS011;8539;53.188;8.696;2022-07-12T13:25:50;0.82;;;0.82;;
16845;SDS011;8539;53.188;8.696;2022-07-12T13:28:17;0.80;;;0.80;;
16845;SDS011;8539;53.188;8.696;2022-07-12T13:30:43;2.58;;;0.98;;
16845;SDS011;8539;53.188;8.696;2022-07-12T13:33:09;0.82;;;0.70;;
16845;SDS011;8539;53.188;8.696;2022-07-12T13:35:35;1.55;;;0.43;;
16845;SDS011;8539;53.188;8.696;2022-07-12T13:38:02;0.73;;;0.73;;
16845;SDS011;8539;53.188;8.696;2022-07-12T13:40:28;2.83;;;0.75;;
16845;SDS011;8539;53.188;8.696;2022-07-12T13:42:54;1.23;;;0.70;;
16845;SDS011;8539;53.188;8.696;2022-07-12T13:45:21;0.50;;;0.50;;
16845;SDS011;8539;53.188;8.696;2022-07-12T13:47:49;0.70;;;0.50;;
16845;SDS011;8539;53.188;8.696;2022-07-12T13:50:16;0.50;;;0.50;;
16845;SDS011;8539;53.188;8.696;2022-07-12T13:52:44;0.60;;;0.60;;
16845;SDS011;8539;53.188;8.696;2022-07-12T13:55:12;0.40;;;0.40;;
16845;SDS011;8539;53.188;8.696;2022-07-12T13:57:40;0.55;;;0.55;;
16845;SDS011;8539;53.188;8.696;2022-07-12T14:00:11;1.17;;;0.73;;
16845;SDS011;8539;53.188;8.696;2022-07-12T14:02:44;0.43;;;0.43;;
16845;SDS011;8539;53.188;8.696;2022-07-12T14:05:12;0.40;;;0.40;;
16845;SDS011;8539;53.188;8.696;2022-07-12T14:07:39;0.55;;;0.55;;
16845;SDS011;8539;53.188;8.696;2022-07-12T14:10:07;0.47;;;0.38;;
16845;SDS011;8539;53.188;8.696;2022-07-12T14:12:35;0.60;;;0.50;;
16845;SDS011;8539;53.188;8.696;2022-07-12T14:15:02;0.47;;;0.47;;
16845;SDS011;8539;53.188;8.696;2022-07-12T14:17:37;0.73;;;0.68;;
16845;SDS011;8539;53.188;8.696;2022-07-12T14:20:05;1.08;;;0.77;;
16845;SDS011;8539;53.188;8.696;2022-07-12T14:22:33;0.50;;;0.40;;
16845;SDS011;8539;53.188;8.696;2022-07-12T14:24:59;0.60;;;0.50;;
16845;SDS011;8539;53.188;8.696;2022-07-12T14:27:30;0.88;;;0.50;;
16845;SDS011;8539;53.188;8.696;2022-07-12T14:30:00;5.25;;;0.88;;
16845;SDS011;8539;53.188;8.696;2022-07-12T14:32:26;1.00;;;0.70;;
16845;SDS011;8539;53.188;8.696;2022-07-12T14:34:52;0.55;;;0.40;;
16845;SDS011;8539;53.188;8.696;2022-07-12T14:37:19;1.17;;;0.40;;
16845;SDS011;8539;53.188;8.696;2022-07-12T14:39:45;2.15;;;0.52;;
16845;SDS011;8539;53.188;8.696;2022-07-12T14:42:13;2.08;;;0.40;;
16845;SDS011;8539;53.188;8.696;2022-07-12T14:44:40;1.50;;;0.60;;
16845;SDS011;8539;53.188;8.696;2022-07-12T14:47:07;0.47;;;0.47;;
16845;SDS011;8539;53.188;8.696;2022-07-12T14:49:34;0.43;;;0.43;;
16845;SDS011;8539;53.188;8.696;2022-07-12T14:52:01;1.20;;;0.50;;
16845;SDS011;8539;53.188;8.696;2022-07-12T14:54:27;0.47;;;0.40;;
16845;SDS011;8539;53.188;8.696;2022-07-12T14:56:53;0.85;;;0.38;;
16845;SDS011;8539;53.188;8.696;2022-07-12T14:59:19;4.80;;;0.65;;
16845;SDS011;8539;53.188;8.696;2022-07-12T15:01:48;0.55;;;0.50;;
16845;SDS011;8539;53.188;8.696;2022-07-12T15:04:15;0.73;;;0.60;;
16845;SDS011;8539;53.188;8.696;2022-07-12T15:06:41;0.30;;;0.30;;
16845;SDS011;8539;53.188;8.696;2022-07-12T15:09:07;0.45;;;0.45;;
16845;SDS011;8539;53.188;8.696;2022-07-12T15:11:33;1.85;;;0.50;;
16845;SDS011;8539;53.188;8.696;2022-07-12T15:14:00;0.45;;;0.45;;
16845;SDS011;8539;53.188;8.696;2022-07-12T15:16:26;0.35;;;0.30;;
16845;SDS011;8539;53.188;8.696;2022-07-12T15:18:52;0.30;;;0.30;;
16845;SDS011;8539;53.188;8.696;2022-07-12T15:21:18;0.80;;;0.40;;
16845;SDS011;8539;53.188;8.696;2022-07-12T15:23:45;0.52;;;0.52;;
16845;SDS011;8539;53.188;8.696;2022-07-12T15:26:11;0.50;;;0.50;;
16845;SDS011;8539;53.188;8.696;2022-07-12T15:28:50;0.43;;;0.40;;
16845;SDS011;8539;53.188;8.696;2022-07-12T15:31:19;0.77;;;0.47;;
16845;SDS011;8539;53.188;8.696;2022-07-12T15:33:45;0.55;;;0.52;;